createdAt,value
2019-02-05T00:02:40.047Z,13.40
2019-02-05T00:05:42.329Z,12.07
2019-02-05T00:08:44.594Z,10.17
2019-02-05T00:11:46.841Z,9.53
2019-02-05T00:14:49.067Z,8.40
2019-02-05T00:17:51.399Z,8.57
2019-02-05T00:20:53.996Z,9.60
2019-02-05T00:23:56.245Z,8.90
2019-02-05T00:26:58.537Z,10.13
2019-02-05T00:30:00.800Z,10.87
2019-02-05T00:33:03.141Z,8.70
2019-02-05T00:36:05.551Z,9.10
2019-02-05T00:39:08.134Z,11.00
2019-02-05T00:42:10.475Z,9.10
2019-02-05T00:45:12.795Z,9.93
2019-02-05T00:48:15.115Z,10.53
2019-02-05T00:51:17.416Z,9.60
2019-02-05T00:54:19.691Z,10.13
2019-02-05T00:57:21.978Z,9.47
2019-02-05T01:00:26.231Z,9.83
2019-02-05T01:03:28.495Z,9.83
2019-02-05T01:06:30.796Z,10.73
2019-02-05T01:09:33.128Z,11.50
2019-02-05T01:12:35.570Z,10.80
2019-02-05T01:15:37.840Z,13.13
2019-02-05T01:18:40.134Z,13.53
2019-02-05T01:21:42.412Z,13.27
2019-02-05T01:24:44.660Z,10.73
2019-02-05T01:27:46.995Z,10.47
2019-02-05T01:30:49.315Z,9.43
2019-02-05T01:33:51.583Z,10.30
2019-02-05T01:36:53.901Z,8.60
2019-02-05T01:39:56.144Z,9.50
2019-02-05T01:42:58.411Z,12.33
2019-02-05T01:46:00.710Z,14.40
2019-02-05T01:49:03.013Z,11.80
2019-02-05T01:52:05.284Z,11.87
2019-02-05T01:55:08.396Z,11.10
2019-02-05T01:58:10.675Z,9.73
2019-02-05T02:01:12.961Z,12.60
2019-02-05T02:04:15.264Z,11.93
2019-02-05T02:07:17.548Z,13.43
2019-02-05T02:10:21.730Z,11.13
2019-02-05T02:13:24.020Z,12.13
2019-02-05T02:16:26.323Z,12.90
2019-02-05T02:19:28.733Z,12.33
2019-02-05T02:22:31.011Z,11.07
2019-02-05T02:25:33.346Z,10.13
2019-02-05T02:28:35.589Z,10.53
2019-02-05T02:31:37.869Z,8.30
2019-02-05T02:34:40.210Z,10.53
2019-02-05T02:37:42.510Z,9.97
2019-02-05T02:40:44.792Z,12.43
2019-02-05T02:43:47.086Z,10.13
2019-02-05T02:46:49.388Z,8.43
2019-02-05T02:49:51.702Z,10.87
2019-02-05T02:52:54.030Z,8.87
2019-02-05T02:55:56.306Z,11.60
2019-02-05T02:58:58.580Z,10.83
2019-02-05T03:02:00.883Z,9.60
2019-02-05T03:05:04.313Z,10.27
2019-02-05T03:08:06.596Z,10.77
2019-02-05T03:11:08.948Z,13.03
2019-02-05T03:14:11.252Z,13.13
2019-02-05T03:17:13.530Z,11.97
2019-02-05T03:20:15.830Z,9.60
2019-02-05T03:23:18.134Z,10.80
2019-02-05T03:26:20.399Z,13.77
2019-02-05T03:29:22.671Z,10.40
2019-02-05T03:32:24.937Z,10.03
2019-02-05T03:35:27.245Z,10.07
2019-02-05T03:38:29.537Z,10.30
2019-02-05T03:41:32.016Z,11.00
2019-02-05T03:44:34.273Z,11.43
2019-02-05T03:47:36.619Z,10.43
2019-02-05T03:50:39.690Z,9.97
2019-02-05T03:53:44.602Z,8.97
2019-02-05T03:56:55.665Z,10.00
2019-02-05T04:00:24.147Z,10.00
2019-02-05T04:03:46.731Z,9.47
2019-02-05T04:09:31.799Z,9.77
2019-02-05T04:12:49.866Z,10.53
2019-02-05T04:16:36.147Z,7.10
2019-02-05T04:19:57.871Z,8.03
2019-02-05T04:23:16.628Z,7.77
2019-02-05T04:26:30.311Z,9.00
2019-02-05T04:29:44.422Z,9.77
2019-02-05T04:32:53.535Z,10.83
2019-02-05T04:36:09.411Z,10.80
2019-02-05T04:39:27.180Z,10.73
2019-02-05T04:42:48.514Z,10.50
2019-02-05T04:46:16.957Z,10.00
2019-02-05T04:51:30.999Z,9.13
2019-02-05T04:54:49.956Z,8.33
2019-02-05T04:58:08.080Z,10.83
2019-02-05T05:01:36.937Z,14.37
2019-02-05T05:04:47.728Z,11.90
2019-02-05T05:08:20.120Z,11.63
2019-02-05T05:11:22.434Z,11.23
2019-02-05T05:14:24.783Z,10.57
2019-02-05T05:17:27.084Z,9.57
2019-02-05T05:20:29.468Z,9.07
2019-02-05T05:23:31.841Z,9.13
2019-02-05T05:26:34.162Z,8.70
2019-02-05T05:29:36.477Z,10.13
2019-02-05T05:32:38.763Z,11.67
2019-02-05T05:35:44.482Z,10.50
2019-02-05T05:38:43.383Z,10.10
2019-02-05T05:41:45.700Z,8.87
2019-02-05T05:44:47.966Z,13.23
2019-02-05T05:47:50.286Z,10.87
2019-02-05T05:50:52.559Z,10.17
2019-02-05T05:53:54.850Z,9.50
2019-02-05T05:56:57.123Z,10.40
2019-02-05T05:59:59.410Z,13.53
2019-02-05T06:03:01.676Z,12.53
2019-02-05T06:06:04.051Z,11.97
2019-02-05T06:09:07.704Z,14.87
2019-02-05T06:12:09.987Z,12.20
2019-02-05T06:15:12.541Z,10.83
2019-02-05T06:18:14.823Z,13.77
2019-02-05T06:21:17.112Z,12.70
2019-02-05T06:24:19.431Z,13.27
2019-02-05T06:27:21.729Z,15.03
2019-02-05T06:30:24.113Z,12.47
2019-02-05T06:33:26.509Z,12.97
2019-02-05T06:36:28.812Z,12.17
2019-02-05T06:39:31.125Z,12.33
2019-02-05T06:42:33.478Z,9.70
2019-02-05T06:45:35.760Z,8.97
2019-02-05T06:48:38.012Z,9.53
2019-02-05T06:51:40.355Z,9.50
2019-02-05T06:54:42.662Z,9.97
2019-02-05T06:57:44.891Z,8.70
2019-02-05T07:00:47.186Z,9.53
2019-02-05T07:03:49.493Z,10.00
2019-02-05T07:06:51.723Z,11.47
2019-02-05T07:09:54.011Z,8.27
2019-02-05T07:12:56.328Z,8.50
2019-02-05T07:15:58.584Z,9.30
2019-02-05T07:19:00.881Z,9.47
2019-02-05T07:22:03.254Z,8.23
2019-02-05T07:25:07.499Z,8.63
2019-02-05T07:28:09.811Z,7.03
2019-02-05T07:31:12.173Z,8.03
2019-02-05T07:34:14.455Z,7.33
2019-02-05T07:37:16.704Z,8.73
2019-02-05T07:40:19.038Z,8.47
2019-02-05T07:43:21.321Z,10.60
2019-02-05T07:46:23.685Z,11.83
2019-02-05T07:49:25.992Z,15.80
2019-02-05T07:52:28.274Z,12.93
2019-02-05T07:55:30.568Z,14.63
2019-02-05T07:58:32.851Z,12.43
2019-02-05T08:01:35.167Z,11.00
2019-02-05T08:04:37.419Z,11.17
2019-02-05T08:07:39.735Z,16.60
2019-02-05T08:10:42.016Z,12.47
2019-02-05T08:13:44.283Z,14.63
2019-02-05T08:16:48.000Z,13.20
2019-02-05T08:19:48.872Z,10.17
2019-02-05T08:22:51.199Z,12.93
2019-02-05T08:25:53.467Z,12.80
2019-02-05T08:28:55.768Z,14.03
2019-02-05T08:31:58.030Z,11.80
2019-02-05T08:35:00.399Z,10.83
2019-02-05T08:38:02.701Z,11.50
2019-02-05T08:41:05.016Z,12.00
2019-02-05T08:44:07.328Z,11.33
2019-02-05T08:47:09.603Z,15.83
2019-02-05T08:50:14.623Z,15.13
2019-02-05T08:53:16.905Z,13.33
2019-02-05T08:56:19.188Z,13.40
2019-02-05T08:59:21.510Z,14.40
2019-02-05T09:02:23.842Z,13.33
2019-02-05T09:05:26.159Z,12.63
2019-02-05T09:08:28.445Z,11.83
2019-02-05T09:11:30.764Z,12.17
2019-02-05T09:14:33.051Z,15.90
2019-02-05T09:17:35.336Z,12.67
2019-02-05T09:20:37.669Z,13.87
2019-02-05T09:23:39.975Z,17.40
2019-02-05T09:26:42.272Z,15.03
2019-02-05T09:29:44.579Z,12.53
2019-02-05T09:32:47.126Z,16.20
2019-02-05T09:35:49.423Z,15.07
2019-02-05T09:38:51.707Z,16.07
2019-02-05T09:41:54.065Z,14.30
2019-02-05T09:44:56.398Z,13.83
2019-02-05T09:47:58.870Z,12.10
2019-02-05T09:51:01.177Z,12.23
2019-02-05T09:54:03.518Z,13.70
2019-02-05T09:57:05.830Z,14.67
2019-02-05T10:00:14.031Z,12.67
2019-02-05T10:03:16.339Z,14.93
2019-02-05T10:06:18.660Z,12.27
2019-02-05T10:09:20.911Z,14.77
2019-02-05T10:12:23.227Z,14.93
2019-02-05T10:15:28.243Z,14.50
2019-02-05T10:18:30.564Z,15.80
2019-02-05T10:21:32.868Z,16.53
2019-02-05T10:24:35.165Z,16.60
2019-02-05T10:27:37.499Z,16.40
2019-02-05T10:30:41.579Z,14.13
2019-02-05T10:33:54.652Z,15.33
2019-02-05T10:36:46.118Z,13.97
2019-02-05T10:39:48.376Z,15.20
2019-02-05T10:42:50.687Z,12.63
2019-02-05T10:45:52.971Z,10.63
2019-02-05T10:48:56.263Z,11.93
2019-02-05T10:51:58.560Z,15.43
2019-02-05T10:55:00.871Z,11.97
2019-02-05T10:58:03.343Z,13.10
2019-02-05T11:01:05.658Z,13.87
2019-02-05T11:04:07.989Z,15.57
2019-02-05T11:07:10.320Z,14.57
2019-02-05T11:10:12.610Z,13.67
2019-02-05T11:13:14.987Z,13.03
2019-02-05T11:16:17.244Z,11.90
2019-02-05T11:19:19.523Z,15.63
2019-02-05T11:22:21.873Z,15.77
2019-02-05T11:25:24.203Z,12.70
2019-02-05T11:28:27.090Z,16.03
2019-02-05T11:31:29.428Z,13.17
2019-02-05T11:34:31.761Z,13.00
2019-02-05T11:37:34.610Z,14.23
2019-02-05T11:40:36.982Z,15.67
2019-02-05T11:43:39.263Z,13.17
2019-02-05T11:46:41.515Z,15.13
2019-02-05T11:49:43.834Z,13.63
2019-02-05T11:52:46.215Z,13.60
2019-02-05T11:55:48.509Z,15.87
2019-02-05T11:58:50.819Z,12.23
2019-02-05T12:01:53.071Z,12.73
2019-02-05T12:04:55.310Z,14.43
2019-02-05T12:07:57.835Z,13.47
2019-02-05T12:11:00.820Z,16.30
2019-02-05T12:14:03.420Z,13.87
2019-02-05T12:17:05.754Z,13.17
2019-02-05T12:20:09.883Z,15.70
2019-02-05T12:23:12.219Z,20.10
2019-02-05T12:26:14.517Z,20.40
2019-02-05T12:29:16.909Z,20.30
2019-02-05T12:32:19.210Z,18.10
2019-02-05T12:35:21.514Z,20.47
2019-02-05T12:38:23.815Z,22.90
2019-02-05T12:41:26.148Z,22.30
2019-02-05T12:44:28.451Z,21.30
2019-02-05T12:47:30.716Z,23.10
2019-02-05T12:50:33.953Z,21.80
2019-02-05T12:53:36.248Z,23.03
2019-02-05T12:56:38.520Z,24.80
2019-02-05T12:59:40.803Z,23.67
2019-02-05T13:02:43.062Z,25.03
2019-02-05T13:05:45.363Z,22.07
2019-02-05T13:08:47.676Z,23.37
2019-02-05T13:11:49.947Z,26.53
2019-02-05T13:14:52.203Z,23.87
2019-02-05T13:17:54.498Z,26.37
2019-02-05T13:20:56.815Z,27.00
2019-02-05T13:23:59.132Z,24.87
2019-02-05T13:27:01.464Z,26.40
2019-02-05T13:30:05.108Z,23.73
2019-02-05T13:33:07.483Z,23.80
2019-02-05T13:36:10.017Z,27.33
2019-02-05T13:39:12.549Z,27.20
2019-02-05T13:42:14.819Z,27.10
2019-02-05T13:45:18.679Z,28.47
2019-02-05T13:48:20.960Z,27.90
2019-02-05T13:51:23.265Z,27.57
2019-02-05T13:54:25.559Z,29.13
2019-02-05T13:57:27.820Z,30.77
2019-02-05T14:00:33.244Z,27.17
2019-02-05T14:03:35.539Z,29.30
2019-02-05T14:06:37.845Z,27.57
2019-02-05T14:09:40.155Z,27.90
2019-02-05T14:12:42.500Z,27.27
2019-02-05T14:15:46.466Z,26.27
2019-02-05T14:18:55.481Z,28.80
2019-02-05T14:21:51.066Z,26.43
2019-02-05T14:24:53.343Z,27.57
2019-02-05T14:27:55.655Z,26.13
2019-02-05T14:30:57.937Z,27.43
2019-02-05T14:34:00.195Z,29.77
2019-02-05T14:37:02.517Z,28.20
2019-02-05T14:40:07.116Z,26.33
2019-02-05T14:43:09.428Z,24.13
2019-02-05T14:46:13.148Z,25.23
2019-02-05T14:49:14.035Z,25.70
2019-02-05T14:52:16.287Z,28.37
2019-02-05T14:55:18.560Z,26.23
2019-02-05T14:58:20.832Z,27.87
2019-02-05T15:01:23.154Z,22.87
2019-02-05T15:04:25.444Z,23.70
2019-02-05T15:07:27.731Z,24.43
2019-02-05T15:10:30.034Z,26.33
2019-02-05T15:13:32.318Z,27.70
2019-02-05T15:16:34.616Z,23.90
2019-02-05T15:19:36.911Z,23.03
2019-02-05T15:22:39.185Z,24.23
2019-02-05T15:25:41.533Z,19.87
2019-02-05T15:28:43.812Z,17.67
2019-02-05T15:31:54.160Z,23.57
2019-02-05T15:34:48.424Z,18.47
2019-02-05T15:37:50.682Z,23.07
2019-02-05T15:40:53.046Z,20.70
2019-02-05T15:43:56.371Z,25.17
2019-02-05T15:46:58.696Z,26.53
2019-02-05T15:50:05.981Z,24.40
2019-02-05T15:53:03.296Z,25.53
2019-02-05T15:56:05.657Z,21.37
2019-02-05T15:59:07.956Z,26.90
2019-02-05T16:02:10.264Z,27.23
2019-02-05T16:05:12.564Z,29.77
2019-02-05T16:08:14.819Z,24.43
2019-02-05T16:11:17.101Z,23.97
2019-02-05T16:14:19.389Z,22.20
2019-02-05T16:17:21.701Z,19.87
2019-02-05T16:20:24.095Z,23.27
2019-02-05T16:23:26.393Z,17.83
2019-02-05T16:26:28.670Z,17.97
2019-02-05T16:29:30.943Z,17.87
2019-02-05T16:32:33.235Z,24.40
2019-02-05T16:35:35.537Z,23.77
2019-02-05T16:38:37.832Z,27.50
2019-02-05T16:41:40.188Z,24.23
2019-02-05T16:44:42.539Z,23.63
2019-02-05T16:47:44.838Z,22.80
2019-02-05T16:50:47.310Z,25.57
2019-02-05T16:53:49.687Z,25.73
2019-02-05T16:56:52.166Z,23.30
2019-02-05T16:59:54.521Z,19.43
2019-02-05T17:02:56.795Z,25.33
2019-02-05T17:05:59.207Z,16.47
2019-02-05T17:09:01.479Z,21.57
2019-02-05T17:12:04.036Z,17.83
2019-02-05T17:15:08.317Z,15.43
2019-02-05T17:18:10.630Z,15.03
2019-02-05T17:21:13.038Z,18.30
2019-02-05T17:24:15.328Z,17.87
2019-02-05T17:27:17.633Z,16.23
2019-02-05T17:30:21.865Z,24.73
2019-02-05T17:33:24.139Z,17.20
2019-02-05T17:36:26.508Z,19.30
2019-02-05T17:39:28.771Z,20.17
2019-02-05T17:42:31.120Z,18.47
2019-02-05T17:45:35.304Z,16.93
2019-02-05T17:48:37.683Z,25.33
2019-02-05T17:51:40.091Z,19.57
2019-02-05T17:54:42.619Z,16.90
2019-02-05T17:57:45.316Z,15.93
2019-02-05T18:00:49.612Z,22.20
2019-02-05T18:03:51.947Z,19.93
2019-02-05T18:06:54.507Z,18.83
2019-02-05T18:09:57.339Z,28.47
2019-02-05T18:13:00.412Z,21.37
2019-02-05T18:16:15.208Z,21.60
2019-02-05T18:19:18.114Z,24.93
2019-02-05T18:22:20.980Z,25.90
2019-02-05T18:25:23.753Z,26.53
2019-02-05T18:28:26.356Z,26.93
2019-02-05T18:31:29.106Z,29.00
2019-02-05T18:34:31.957Z,30.30
2019-02-05T18:37:36.085Z,26.37
2019-02-05T18:40:39.061Z,20.93
2019-02-05T18:43:42.112Z,32.30
2019-02-05T18:46:45.389Z,32.93
2019-02-05T18:49:48.371Z,36.70
2019-02-05T18:52:51.283Z,28.27
2019-02-05T18:55:54.690Z,22.20
2019-02-05T18:58:57.235Z,23.47
2019-02-05T19:02:01.108Z,30.83
2019-02-05T19:05:06.673Z,23.10
2019-02-05T19:08:09.803Z,31.03
2019-02-05T19:11:13.001Z,24.90
2019-02-05T19:14:17.163Z,26.60
2019-02-05T19:17:20.262Z,33.47
2019-02-05T19:20:24.982Z,39.93
2019-02-05T19:23:28.417Z,31.57
2019-02-05T19:26:35.964Z,31.20
2019-02-05T19:29:40.280Z,29.73
2019-02-05T19:32:43.787Z,32.23
2019-02-05T19:35:48.099Z,29.23
2019-02-05T19:38:52.314Z,28.30
2019-02-05T19:41:56.097Z,32.10
2019-02-05T19:45:04.652Z,26.07
2019-02-05T19:48:10.343Z,27.80
2019-02-05T19:51:16.225Z,31.17
2019-02-05T19:54:18.877Z,29.73
2019-02-05T19:57:23.163Z,29.63
2019-02-05T20:00:26.194Z,25.97
2019-02-05T20:03:38.256Z,27.67
2019-02-05T20:06:34.938Z,29.53
2019-02-05T20:09:38.445Z,32.40
2019-02-05T20:12:42.863Z,21.20
2019-02-05T20:15:45.969Z,26.80
2019-02-05T20:18:50.378Z,27.73
2019-02-05T20:21:53.812Z,32.20
2019-02-05T20:24:57.153Z,23.30
2019-02-05T20:28:00.435Z,24.80
2019-02-05T20:31:03.388Z,18.33
2019-02-05T20:34:07.306Z,15.67
2019-02-05T20:37:10.949Z,22.63
2019-02-05T20:40:15.463Z,16.60
2019-02-05T20:43:18.401Z,19.60
2019-02-05T20:46:21.491Z,16.27
2019-02-05T20:49:24.951Z,16.17
2019-02-05T20:52:30.165Z,17.87
2019-02-05T20:55:33.911Z,23.87
2019-02-05T20:58:37.315Z,19.83
2019-02-05T21:01:40.500Z,23.90
2019-02-05T21:04:48.460Z,22.70
2019-02-05T21:07:46.324Z,20.87
2019-02-05T21:10:49.289Z,18.37
2019-02-05T21:13:52.647Z,21.77
2019-02-05T21:16:55.335Z,27.73
2019-02-05T21:19:57.655Z,18.33
2019-02-05T21:23:00.055Z,24.23
2019-02-05T21:26:02.426Z,20.90
2019-02-05T21:29:05.157Z,13.30
2019-02-05T21:32:07.474Z,15.07
2019-02-05T21:35:09.873Z,14.73
2019-02-05T21:38:12.232Z,16.00
2019-02-05T21:41:14.540Z,13.90
2019-02-05T21:44:16.792Z,18.90
2019-02-05T21:47:19.086Z,13.97
2019-02-05T21:50:21.503Z,16.27
2019-02-05T21:53:23.871Z,22.87
2019-02-05T21:56:26.133Z,22.50
2019-02-05T21:59:28.385Z,19.97
2019-02-05T22:02:30.717Z,21.43
2019-02-05T22:05:33.093Z,14.17
2019-02-05T22:08:35.424Z,15.37
2019-02-05T22:11:40.741Z,13.23
2019-02-05T22:14:40.100Z,24.40
2019-02-05T22:17:42.516Z,20.23
2019-02-05T22:20:44.919Z,23.77
2019-02-05T22:23:47.246Z,19.23
2019-02-05T22:26:49.543Z,20.77
2019-02-05T22:29:52.094Z,23.00
2019-02-05T22:32:54.481Z,22.07
2019-02-05T22:35:56.746Z,21.13
2019-02-05T22:38:59.049Z,16.07
2019-02-05T22:42:01.447Z,18.93
2019-02-05T22:45:04.937Z,19.10
2019-02-05T22:48:07.264Z,23.07
2019-02-05T22:51:09.616Z,20.17
2019-02-05T22:54:11.907Z,20.77
2019-02-05T22:57:14.372Z,19.57
2019-02-05T23:00:27.419Z,18.63
2019-02-05T23:03:35.135Z,15.87
2019-02-05T23:06:52.507Z,25.03
2019-02-05T23:10:11.506Z,14.70
2019-02-05T23:13:16.264Z,21.07
2019-02-05T23:16:18.552Z,23.07
2019-02-05T23:19:20.854Z,22.40
2019-02-05T23:22:23.187Z,24.80
2019-02-05T23:25:25.443Z,21.70
2019-02-05T23:28:27.757Z,19.73
2019-02-05T23:31:30.033Z,17.57
2019-02-05T23:34:32.300Z,20.37
2019-02-05T23:37:34.587Z,19.20
2019-02-05T23:40:36.843Z,14.13
2019-02-05T23:43:39.195Z,15.90
2019-02-05T23:46:41.562Z,17.87
2019-02-05T23:49:43.846Z,19.30
2019-02-05T23:52:46.153Z,12.97
2019-02-05T23:55:48.427Z,19.80
2019-02-05T23:58:50.729Z,15.70
